Terminal Aerodrome Forecast
Issued by NWS Kansas City/Pleasant Hill, MO

Home | Current Version | Previous Version | Text Only | Print | Product List | Glossary On
Versions: 1 2 3 4 5 6 7 8 9 10 11 12 13 14 15 16 17 18
000
FTUS43 KEAX 220801 AAA
TAFMCI
TAF AMD
KMCI 220801Z 2208/2306 35011KT P6SM -RA VCTS BKN050CB
      TEMPO 2208/2209 -TSRA
     FM220900 32007KT P6SM SCT035 BKN150
     FM230000 18005KT P6SM SKC=

USA.gov is the U.S. government's official web portal to all federal, state and local government web resources and services.